KPAH

Barkley Regional Airport

Airport
ICAO code
KPAH
IATA Code
PAH
Summary
ICAO Region
NAM
ICAO Territory
Location

Paducah, Kentucky

Serving
Paducah
Elevation
410 ft
Coordinates
37° 3' 39" N , 88° 46' 21" W
KCC
Metar
KPAH 151553Z 00000KT 10SM CLR 30/19 A3002 RMK AO2 SLP162 T03000189

Description

Barkley Regional Airport is 14 nm west of Paducah, Kentucky, USA. It is used for general aviation.

Runways

Designator Length Width Surface Rops
14/32 1676 46 ASP Yes/Yes
4/22 1981 46 ASP Yes/Yes

Airport map

Aerial View

SKYbrary Partners:

Safety knowledge contributed by: